Flight Track Log - Related Links

Times and Time Zones

All times are in EDT time to prevent confusion due to time zone crossing. See the SWA1775 flight status page for this flight to view local times or setup timezone preferences in your user account.

Time Position Orientation Groundspeed Altitude Reporting Facility
EDT Latitude Longitude Course Direction KTS MPH feet Rate Location/Type
Sun 11:24:41 AM 36.1830 -86.6610 18° North 225 259 3,000  Level FlightAware ADS-B
Sun 11:25:10 AM 36.2120 -86.6510 16° North 245 282 4,100 1,959 Climbing FlightAware ADS-B
Sun 11:25:30 AM 36.2340 -86.6580 346° North 258 297 4,600 2,400 Climbing FlightAware ADS-B
Sun 11:25:50 AM 36.2480 -86.6830 305° West 254 292 5,700 3,290 Climbing FlightAware ADS-B
Sun 11:26:01 AM 36.2490 -86.6980 275° West 256 295 6,300 3,167 Climbing FlightAware ADS-B
Sun 11:26:26 AM 36.2500 -86.7370 272° West 259 298 7,600 3,240 Climbing FlightAware ADS-B
Sun 11:26:51 AM 36.2530 -86.7720 276° West 256 295 9,000 2,522 Climbing FlightAware ADS-B
Sun 11:27:35 AM 36.2550 -86.8430 272° West 292 336 10,500 1,629 Climbing FlightAware ADS-B
Sun 11:28:01 AM 36.2570 -86.8910 273° West 327 376 10,900 1,610 Climbing FlightAware ADS-B
Sun 11:28:57 AM 36.2480 -87.0010 264° West 360 414 12,700 2,217 Climbing FlightAware ADS-B
Sun 11:29:33 AM 36.2420 -87.0760 264° West 363 418 14,300 2,582 Climbing FlightAware ADS-B
Sun 11:30:16 AM 36.2330 -87.1630 263° West 368 423 16,100 2,455 Climbing FlightAware ADS-B
Sun 11:31:01 AM 36.2250 -87.2600 264° West 372 428 17,900 2,047 Climbing FlightAware ADS-B
Sun 11:31:41 AM 36.2190 -87.3440 265° West 384 442 19,000 1,786 Climbing FlightAware ADS-B
Sun 11:32:25 AM 36.2230 -87.4440 273° West 390 449 20,400 1,857 Climbing FlightAware ADS-B
Sun 11:33:05 AM 36.2260 -87.5320 272° West 397 457 21,600 1,737 Climbing FlightAware ADS-B
Sun 11:33:41 AM 36.2280 -87.6130 272° West 402 463 22,600 1,725 Climbing FlightAware ADS-B
Sun 11:34:25 AM 36.2310 -87.7140 272° West 404 465 23,900 1,704 Climbing FlightAware ADS-B
Sun 11:35:02 AM 36.2340 -87.8010 272° West 407 468 24,900 1,500 Climbing FlightAware ADS-B
Sun 11:35:41 AM 36.2360 -87.8940 272° West 413 475 25,800 929 Climbing FlightAware ADS-B
Sun 11:36:26 AM 36.2380 -87.9930 271° West 417 480 26,200 737 Climbing FlightAware ADS-B
Sun 11:37:35 AM 36.2420 -88.1520 272° West 424 488 27,200 1,488 Climbing FlightAware ADS-B
Sun 11:38:31 AM 36.2460 -88.2890 272° West 410 472 29,300 1,370 Climbing FlightAware ADS-B
Sun 11:39:07 AM 36.2470 -88.3610 271° West 410 472 29,300  Level FlightAware ADS-B
Sun 11:39:55 AM 36.2480 -88.4570 271° West 410 472 29,300  Level FlightAware ADS-B
Sun 11:40:41 AM 36.2500 -88.5490 272° West 410 472 29,300  Level FlightAware ADS-B
Sun 11:41:17 AM 36.2510 -88.6210 271° West 410 472 29,300 2,865 Level FlightAware ADS-B
Sun 11:42:32 AM 36.2575 -88.8206 271° West 384 442 34,600 916 Climbing Memphis Center
Sun 11:48:36 AM 36.2720 -89.6230 271° West 385 443 36,000 207 Climbing FlightAware ADS-B
Sun 11:49:17 AM 36.2730 -89.7090 271° West 387 445 36,000  Level FlightAware ADS-B
Sun 11:49:58 AM 36.2740 -89.7940 271° West 387 445 36,000  Level FlightAware ADS-B
Sun 11:50:35 AM 36.2740 -89.8640 270° West 387 445 36,000  Level FlightAware ADS-B
Sun 11:51:12 AM 36.2740 -89.9340 270° West 387 445 36,000  Level FlightAware ADS-B
Sun 11:51:54 AM 36.2770 -90.0610 272° West 393 452 36,000  Level FlightAware ADS-B
Sun 11:53:06 AM 36.2780 -90.2250 270° West 395 455 36,000  Level FlightAware ADS-B
Sun 11:53:47 AM 36.2780 -90.3020 270° West 395 455 36,000  Level FlightAware ADS-B
Sun 11:54:23 AM 36.2780 -90.3720 270° West 395 455 36,000  Level FlightAware ADS-B
Sun 11:55:10 AM 36.2810 -90.5060 272° West 399 459 36,000  Level FlightAware ADS-B
Sun 11:55:48 AM 36.2810 -90.5920 270° West 399 459 36,000  Level FlightAware ADS-B
Sun 11:56:28 AM 36.2820 -90.6820 271° West 398 458 36,000  Level FlightAware ADS-B
Sun 11:57:21 AM 36.2820 -90.8040 270° West 399 459 36,000  Level FlightAware ADS-B
Sun 11:58:06 AM 36.2820 -90.9080 270° West 400 460 36,000  Level FlightAware ADS-B
Sun 11:58:42 AM 36.2830 -90.9900 271° West 401 461 36,000  Level FlightAware ADS-B
Sun 11:59:26 AM 36.2830 -91.0920 270° West 402 463 36,000  Level FlightAware ADS-B
Sun 12:00:11 PM 36.2830 -91.1940 270° West 403 464 36,000  Level FlightAware ADS-B
Sun 12:00:46 PM 36.2830 -91.2740 270° West 404 465 36,000  Level FlightAware ADS-B
Sun 12:01:42 PM 36.2830 -91.4050 270° West 406 467 36,000  Level FlightAware ADS-B
Sun 12:02:16 PM 36.2820 -91.4690 269° West 407 468 36,000  Level FlightAware ADS-B
Sun 12:03:04 PM 36.2820 -91.5960 270° West 409 471 36,000  Level FlightAware ADS-B
Sun 12:03:40 PM 36.2820 -91.6810 270° West 410 472 36,000  Level FlightAware ADS-B
Sun 12:04:24 PM 36.2820 -91.7820 270° West 410 472 36,000  Level FlightAware ADS-B
Sun 12:05:04 PM 36.2810 -91.8780 269° West 410 472 36,000  Level FlightAware ADS-B
Sun 12:05:44 PM 36.2810 -91.9710 270° West 408 470 36,000  Level FlightAware ADS-B
Sun 12:06:29 PM 36.2800 -92.0740 269° West 408 470 36,000  Level FlightAware ADS-B
Sun 12:07:12 PM 36.2790 -92.1770 269° West 408 470 36,000  Level FlightAware ADS-B
Sun 12:07:54 PM 36.2780 -92.2690 269° West 408 470 36,000  Level FlightAware ADS-B
Sun 12:08:36 PM 36.2770 -92.3710 269° West 407 468 36,000  Level FlightAware ADS-B
Sun 12:09:16 PM 36.2760 -92.4650 269° West 407 468 36,000  Level FlightAware ADS-B
Sun 12:09:56 PM 36.2750 -92.5590 269° West 409 471 36,000  Level FlightAware ADS-B
Sun 12:10:40 PM 36.2740 -92.6620 269° West 411 473 36,000  Level FlightAware ADS-B
Sun 12:11:25 PM 36.2730 -92.7550 269° West 412 474 36,000  Level FlightAware ADS-B
Sun 12:12:01 PM 36.2720 -92.8300 269° West 413 475 36,000  Level FlightAware ADS-B
Sun 12:12:48 PM 36.2700 -92.9620 269° West 414 476 36,000  Level FlightAware ADS-B
Sun 12:13:28 PM 36.2690 -93.0560 269° West 416 479 36,000  Level FlightAware ADS-B
Sun 12:14:08 PM 36.2670 -93.1520 269° West 416 479 36,000  Level FlightAware ADS-B
Sun 12:14:52 PM 36.2660 -93.2580 269° West 416 479 36,000  Level FlightAware ADS-B
Sun 12:15:26 PM 36.2640 -93.3370 268° West 416 479 36,000  Level FlightAware ADS-B
Sun 12:16:08 PM 36.2630 -93.4370 269° West 416 479 36,000  Level FlightAware ADS-B
Sun 12:16:52 PM 36.2610 -93.5430 269° West 415 478 36,000  Level FlightAware ADS-B
Sun 12:17:26 PM 36.2590 -93.6220 268° West 412 474 36,000  Level FlightAware ADS-B
Sun 12:18:08 PM 36.2570 -93.7220 269° West 410 472 36,000  Level FlightAware ADS-B
Sun 12:18:52 PM 36.2550 -93.8240 269° West 409 471 36,000  Level FlightAware ADS-B
Sun 12:19:34 PM 36.2530 -93.9230 269° West 410 472 36,000  Level FlightAware ADS-B
Sun 12:19:54 PM 36.2520 -93.9700 269° West 410 472 36,000  Level FlightAware ADS-B
Sun 12:22:33 PM 36.2430 -94.3160 268° West 412 474 36,000  Level FlightAware ADS-B
Sun 12:23:12 PM 36.2400 -94.4350 268° West 414 476 36,000  Level FlightAware ADS-B
Sun 12:23:56 PM 36.2370 -94.5400 268° West 414 476 36,000  Level FlightAware ADS-B
Sun 12:24:46 PM 36.2340 -94.6570 268° West 414 476 36,000  Level FlightAware ADS-B
Sun 12:25:26 PM 36.2310 -94.7530 268° West 416 479 36,000  Level FlightAware ADS-B
Sun 12:26:08 PM 36.2280 -94.8520 268° West 417 480 36,000  Level FlightAware ADS-B
Sun 12:26:48 PM 36.2250 -94.9480 268° West 418 481 36,000  Level FlightAware ADS-B
Sun 12:27:34 PM 36.2220 -95.0550 268° West 418 481 36,000  Level FlightAware ADS-B
Sun 12:28:14 PM 36.2190 -95.1530 268° West 419 482 36,000  Level FlightAware ADS-B
Sun 12:28:52 PM 36.2160 -95.2410 268° West 420 483 36,000  Level FlightAware ADS-B
Sun 12:29:35 PM 36.2120 -95.3460 267° West 420 483 36,000  Level FlightAware ADS-B
Sun 12:30:16 PM 36.2090 -95.4470 268° West 421 484 36,000  Level FlightAware ADS-B
Sun 12:30:56 PM 36.2050 -95.5400 267° West 421 484 36,000  Level FlightAware ADS-B
Sun 12:31:51 PM 36.2010 -95.6750 268° West 422 486 36,000  Level FlightAware ADS-B
Sun 12:32:42 PM 36.1940 -95.7970 266° West 428 493 36,000  Level FlightAware ADS-B
Sun 12:33:43 PM 36.1700 -95.9440 259° West 433 498 36,000  Level FlightAware ADS-B
Sun 12:34:26 PM 36.1530 -96.0490 259° West 433 498 36,000  Level FlightAware ADS-B
Sun 12:35:17 PM 36.1320 -96.1680 258° West 434 499 36,000  Level FlightAware ADS-B
Sun 12:36:04 PM 36.1130 -96.2800 258° West 433 498 36,000  Level FlightAware ADS-B
Sun 12:36:51 PM 36.0930 -96.3970 258° West 432 497 36,000  Level FlightAware ADS-B
Sun 12:37:34 PM 36.0750 -96.5030 258° West 430 495 36,000  Level FlightAware ADS-B
Sun 12:38:08 PM 36.0630 -96.5700 258° West 430 495 36,000  Level FlightAware ADS-B
Sun 12:38:59 PM 36.0400 -96.7040 258° West 427 491 36,000  Level FlightAware ADS-B
Sun 12:39:42 PM 36.0230 -96.7980 257° West 427 491 36,000  Level FlightAware ADS-B
Sun 12:40:19 PM 36.0090 -96.8730 257° West 427 491 36,000  Level FlightAware ADS-B
Sun 12:41:07 PM 35.9910 -96.9700 257° West 427 491 36,000  Level FlightAware ADS-B
Sun 12:41:44 PM 35.9770 -97.0450 257° West 427 491 36,000  Level FlightAware ADS-B
Sun 12:42:30 PM 35.9590 -97.1380 257° West 427 491 36,000  Level FlightAware ADS-B
Sun 12:43:02 PM 35.9370 -97.2830 259° West 431 496 36,000  Level FlightAware ADS-B
Sun 12:44:04 PM 35.9100 -97.4350 258° West 431 496 36,000  Level FlightAware ADS-B
Sun 12:44:37 PM 35.8960 -97.5140 258° West 431 496 36,000  Level FlightAware ADS-B
Sun 12:45:36 PM 35.8720 -97.6410 257° West 430 495 36,000  Level FlightAware ADS-B
Sun 12:46:17 PM 35.8520 -97.7540 258° West 430 495 36,000  Level FlightAware ADS-B
Sun 12:47:23 PM 35.8230 -97.9100 257° West 431 496 36,000  Level FlightAware ADS-B
Sun 12:48:05 PM 35.8070 -97.9930 257° West 430 495 36,000  Level FlightAware ADS-B
Sun 12:48:53 PM 35.7890 -98.0900 257° West 430 495 36,000  Level FlightAware ADS-B
Sun 12:49:34 PM 35.7770 -98.2230 264° West 430 495 36,000  Level FlightAware ADS-B
Sun 12:50:31 PM 35.7590 -98.3620 261° West 432 497 36,000  Level FlightAware ADS-B
Sun 12:51:10 PM 35.7470 -98.4540 261° West 432 497 36,000  Level FlightAware ADS-B
Sun 12:52:08 PM 35.7300 -98.5900 261° West 432 497 36,000  Level FlightAware ADS-B
Sun 12:52:54 PM 35.7270 -98.6960 268° West 427 491 36,000  Level FlightAware ADS-B
Sun 12:53:32 PM 35.7250 -98.7740 268° West 427 491 36,000  Level FlightAware ADS-B
Sun 12:54:09 PM 35.7240 -98.8510 269° West 427 491 36,000  Level FlightAware ADS-B
Sun 12:54:55 PM 35.7230 -98.9460 269° West 427 491 36,000  Level FlightAware ADS-B
Sun 12:55:32 PM 35.7220 -99.0220 269° West 427 491 36,000  Level FlightAware ADS-B
Sun 12:56:20 PM 35.7200 -99.1220 269° West 427 491 36,000  Level FlightAware ADS-B
Sun 12:57:33 PM 35.7180 -99.2730 269° West 427 491 36,000  Level FlightAware ADS-B
Sun 12:58:08 PM 35.7170 -99.3450 269° West 427 491 36,000  Level FlightAware ADS-B
Sun 12:58:56 PM 35.7160 -99.4440 269° West 427 491 36,000  Level FlightAware ADS-B
Sun 12:59:32 PM 35.7150 -99.5190 269° West 427 491 36,000  Level FlightAware ADS-B
Sun 01:00:28 PM 35.7130 -99.6340 269° West 427 491 36,000  Level FlightAware ADS-B
Sun 01:01:17 PM 35.7120 -99.7360 269° West 427 491 36,000  Level FlightAware ADS-B
Sun 01:01:53 PM 35.7110 -99.8100 269° West 427 491 36,000  Level FlightAware ADS-B
Sun 01:02:36 PM 35.7456 -100.0908 269° West 419 482 36,000  Level Albuquerque Center
Sun 01:03:38 PM 35.7514 -100.2367 273° West 424 488 36,000  Level Albuquerque Center
Sun 01:04:40 PM 35.7472 -100.3783 268° West 418 481 36,000  Level Albuquerque Center
Sun 01:05:42 PM 35.7472 -100.5233 270° West 420 483 36,000  Level Albuquerque Center
Sun 01:06:44 PM 35.7461 -100.6658 269° West 418 481 36,000  Level Albuquerque Center
Sun 01:07:46 PM 35.7469 -100.8397 270° West 421 484 36,000  Level Albuquerque Center
Sun 01:08:48 PM 35.7475 -100.9603 270° West 419 482 36,000  Level Albuquerque Center
Sun 01:09:50 PM 35.7481 -101.1336 270° West 423 487 36,000  Level Albuquerque Center
Sun 01:10:52 PM 35.7472 -101.2750 270° West 418 481 36,000  Level Albuquerque Center
Sun 01:11:54 PM 35.7467 -101.4169 270° West 418 481 36,000  Level Albuquerque Center
Sun 01:12:56 PM 35.7456 -101.5603 269° West 420 483 36,000  Level Albuquerque Center
Sun 01:13:58 PM 35.7447 -101.7025 270° West 420 483 36,000  Level Albuquerque Center
Sun 01:15:00 PM 35.7428 -101.8722 269° West 418 481 36,000  Level Albuquerque Center
Sun 01:16:02 PM 35.7408 -102.0139 269° West 418 481 36,000  Level Albuquerque Center
Sun 01:17:04 PM 35.7394 -102.1550 269° West 417 480 36,000  Level Albuquerque Center
Sun 01:18:07 PM 35.7372 -102.2967 269° West 417 480 36,000  Level Albuquerque Center
Sun 01:19:09 PM 35.7358 -102.4386 269° West 418 481 36,000  Level Albuquerque Center
Sun 01:20:11 PM 35.7325 -102.6083 269° West 416 479 36,000  Level Albuquerque Center
Sun 01:21:13 PM 35.7308 -102.7494 269° West 416 479 36,000  Level Albuquerque Center
Sun 01:22:15 PM 35.7289 -102.8914 269° West 416 479 36,000  Level Albuquerque Center
Sun 01:23:17 PM 35.7256 -103.0381 268° West 413 475 36,000  Level Albuquerque Center
Sun 01:24:19 PM 35.7233 -103.1814 269° West 416 479 36,000  Level Albuquerque Center
Sun 01:25:21 PM 35.7203 -103.3233 269° West 414 476 36,000  Level Albuquerque Center
Sun 01:26:23 PM 35.7181 -103.4647 269° West 412 474 36,000  Level Albuquerque Center
Sun 01:27:25 PM 35.7136 -103.6308 268° West 414 476 36,000  Level Albuquerque Center
Sun 01:28:27 PM 35.7108 -103.7733 269° West 415 478 36,000  Level Albuquerque Center
Sun 01:29:29 PM 35.7067 -103.9167 268° West 417 480 36,000  Level Albuquerque Center
Sun 01:30:31 PM 35.7033 -104.0594 268° West 417 480 36,000  Level Albuquerque Center
Sun 01:31:33 PM 35.6992 -104.2022 268° West 417 480 36,000  Level Albuquerque Center
Sun 01:32:35 PM 35.6947 -104.3450 268° West 417 480 36,000  Level Albuquerque Center
Sun 01:33:37 PM 35.6892 -104.5106 268° West 415 478 36,000  Level Albuquerque Center
Sun 01:34:39 PM 35.6850 -104.6514 268° West 413 475 36,000  Level Albuquerque Center
Sun 01:35:41 PM 35.6803 -104.7922 268° West 411 473 36,000  Level Albuquerque Center
Sun 01:36:43 PM 35.6742 -104.9339 267° West 413 475 36,000  Level Albuquerque Center
Sun 01:37:45 PM 35.6703 -105.0753 268° West 411 473 36,000  Level Albuquerque Center
Sun 01:43:45 PM 35.6380 -105.9140 268° West 417 480 36,000  Level FlightAware ADS-B
Sun 01:44:28 PM 35.6330 -106.0410 267° West 416 479 36,000  Level FlightAware ADS-B
Sun 01:45:11 PM 35.6280 -106.1470 267° West 415 478 36,000  Level FlightAware ADS-B
Sun 01:45:51 PM 35.6240 -106.2420 267° West 416 479 36,000  Level FlightAware ADS-B
Sun 01:46:33 PM 35.6190 -106.3410 266° West 416 479 36,000  Level FlightAware ADS-B
Sun 01:47:19 PM 35.6140 -106.4500 267° West 417 480 36,000  Level FlightAware ADS-B
Sun 01:47:59 PM 35.6100 -106.5440 267° West 418 481 36,000  Level FlightAware ADS-B
Sun 01:48:39 PM 35.6050 -106.6410 266° West 420 483 36,000  Level FlightAware ADS-B
Sun 01:49:23 PM 35.6000 -106.7430 267° West 420 483 36,000  Level FlightAware ADS-B
Sun 01:50:03 PM 35.5950 -106.8410 266° West 421 484 36,000  Level FlightAware ADS-B
Sun 01:50:46 PM 35.5900 -106.9400 266° West 422 486 36,000  Level FlightAware ADS-B
Sun 01:51:31 PM 35.5840 -107.0500 266° West 425 489 36,000  Level FlightAware ADS-B
Sun 01:52:03 PM 35.5800 -107.1270 266° West 424 488 36,000  Level FlightAware ADS-B
Sun 01:52:53 PM 35.5740 -107.2470 267° West 426 490 36,000  Level FlightAware ADS-B
Sun 01:53:27 PM 35.5700 -107.3300 267° West 424 488 36,000  Level FlightAware ADS-B
Sun 01:54:08 PM 35.5640 -107.4260 266° West 421 484 36,000  Level FlightAware ADS-B
Sun 01:54:51 PM 35.5590 -107.5300 267° West 421 484 36,000  Level FlightAware ADS-B
Sun 01:55:31 PM 35.5530 -107.6250 266° West 419 482 36,000  Level FlightAware ADS-B
Sun 01:56:15 PM 35.5470 -107.7290 266° West 418 481 36,000  Level FlightAware ADS-B
Sun 01:56:57 PM 35.5420 -107.8290 267° West 416 479 36,000  Level FlightAware ADS-B
Sun 01:57:39 PM 35.5360 -107.9250 266° West 416 479 36,000  Level FlightAware ADS-B
Sun 01:58:19 PM 35.5270 -108.0200 263° West 415 478 36,000  Level FlightAware ADS-B
Sun 01:58:59 PM 35.5130 -108.1090 259° West 415 478 36,000  Level FlightAware ADS-B
Sun 01:59:36 PM 35.5010 -108.1890 260° West 416 479 36,000  Level FlightAware ADS-B
Sun 02:00:23 PM 35.4860 -108.2820 259° West 416 479 36,000  Level FlightAware ADS-B
Sun 02:00:50 PM 35.4780 -108.3350 260° West 416 479 36,000  Level FlightAware ADS-B
Sun 02:01:26 PM 35.4670 -108.4060 259° West 416 479 36,000  Level FlightAware ADS-B
Sun 02:02:15 PM 35.4510 -108.5030 259° West 416 479 36,000  Level FlightAware ADS-B
Sun 02:02:57 PM 35.4380 -108.5860 259° West 416 479 36,000  Level FlightAware ADS-B
Sun 02:03:45 PM 35.4230 -108.6800 259° West 416 479 36,000  Level FlightAware ADS-B
Sun 02:04:21 PM 35.4120 -108.7510 259° West 416 479 36,000  Level FlightAware ADS-B
Sun 02:05:24 PM 35.3920 -108.8750 259° West 416 479 36,000  Level FlightAware ADS-B
Sun 02:06:01 PM 35.3810 -108.9480 260° West 416 479 36,000  Level FlightAware ADS-B
Sun 02:06:25 PM 35.3730 -108.9960 258° West 416 479 36,000  Level FlightAware ADS-B
Sun 02:07:12 PM 35.3580 -109.0880 259° West 416 479 36,000  Level FlightAware ADS-B
Sun 02:07:58 PM 35.3440 -109.1790 259° West 416 479 36,000  Level FlightAware ADS-B
Sun 02:08:34 PM 35.3330 -109.2500 259° West 416 479 36,000  Level FlightAware ADS-B
Sun 02:09:15 PM 35.4230 -109.5600 290° West 411 473 36,000  Level FlightAware ADS-B
Sun 02:09:57 PM 35.4060 -109.6560 258° West 412 474 36,000  Level FlightAware ADS-B
Sun 02:10:37 PM 35.3880 -109.7510 257° West 414 476 36,000  Level FlightAware ADS-B
Sun 02:11:16 PM 35.3730 -109.8350 258° West 415 478 36,000  Level FlightAware ADS-B
Sun 02:11:49 PM 35.3580 -109.9160 257° West 417 480 36,000  Level FlightAware ADS-B
Sun 02:12:34 PM 35.3390 -110.0170 257° West 416 479 36,000  Level FlightAware ADS-B
Sun 02:13:14 PM 35.3220 -110.1090 257° West 418 481 36,000  Level FlightAware ADS-B
Sun 02:13:55 PM 35.3040 -110.2030 257° West 419 482 36,000  Level FlightAware ADS-B
Sun 02:14:33 PM 35.2870 -110.2910 257° West 419 482 36,000  Level FlightAware ADS-B
Sun 02:15:14 PM 35.2730 -110.3640 257° West 36,000  Level FlightAware ADS-B
Sun 02:15:59 PM 35.2490 -110.4910 257° West 419 482 36,000  Level FlightAware ADS-B
Sun 02:16:43 PM 35.2300 -110.5920 257° West 420 483 36,000  Level FlightAware ADS-B
Sun 02:17:25 PM 35.2110 -110.6890 257° West 419 482 36,000  Level FlightAware ADS-B
Sun 02:18:05 PM 35.1940 -110.7800 257° West 418 481 36,000  Level FlightAware ADS-B
Sun 02:18:49 PM 35.1740 -110.8810 256° West 416 479 36,000  Level FlightAware ADS-B
Sun 02:19:29 PM 35.1560 -110.9720 256° West 416 479 36,000  Level FlightAware ADS-B
Sun 02:20:08 PM 35.1390 -111.0600 257° West 416 479 36,000  Level FlightAware ADS-B
Sun 02:20:39 PM 35.1250 -111.1320 257° West 416 479 36,000  Level FlightAware ADS-B
Sun 02:21:23 PM 35.1050 -111.2330 256° West 417 480 36,000  Level FlightAware ADS-B
Sun 02:22:03 PM 35.0870 -111.3240 256° West 418 481 36,000  Level FlightAware ADS-B
Sun 02:22:47 PM 35.0670 -111.4250 256° West 420 483 36,000  Level FlightAware ADS-B
Sun 02:23:27 PM 35.0480 -111.5180 256° West 421 484 36,000  Level FlightAware ADS-B
Sun 02:24:13 PM 35.0270 -111.6240 256° West 423 487 36,000  Level FlightAware ADS-B
Sun 02:24:53 PM 35.0080 -111.7170 256° West 423 487 36,000  Level FlightAware ADS-B
Sun 02:25:37 PM 34.9880 -111.8170 256° West 413 475 36,000  Level FlightAware ADS-B
Sun 02:26:17 PM 34.9700 -111.9060 256° West 399 459 36,000  Level FlightAware ADS-B
Sun 02:27:01 PM 34.9500 -112.0020 256° West 398 458 36,000  Level FlightAware ADS-B
Sun 02:27:41 PM 34.9320 -112.0890 256° West 398 458 36,000  Level FlightAware ADS-B
Sun 02:28:24 PM 34.9130 -112.1810 256° West 398 458 36,000  Level FlightAware ADS-B
Sun 02:29:05 PM 34.8950 -112.2710 256° West 398 458 36,000  Level FlightAware ADS-B
Sun 02:29:43 PM 34.8770 -112.3540 255° West 398 458 36,000  Level FlightAware ADS-B
Sun 02:30:29 PM 34.8570 -112.4530 256° West 398 458 36,000  Level FlightAware ADS-B
Sun 02:31:10 PM 34.8380 -112.5420 255° West 399 459 36,000  Level FlightAware ADS-B
Sun 02:31:53 PM 34.8190 -112.6340 256° West 400 460 36,000  Level FlightAware ADS-B
Sun 02:32:35 PM 34.7990 -112.7280 255° West 407 468 36,000  Level FlightAware ADS-B
Sun 02:33:13 PM 34.7810 -112.8140 256° West 418 481 36,000  Level FlightAware ADS-B
Sun 02:33:59 PM 34.7580 -112.9190 255° West 420 483 36,000  Level FlightAware ADS-B
Sun 02:34:39 PM 34.7390 -113.0110 256° West 421 484 36,000  Level FlightAware ADS-B
Sun 02:35:25 PM 34.7170 -113.1130 255° West 421 484 36,000  Level FlightAware ADS-B
Sun 02:36:05 PM 34.6970 -113.2060 255° West 422 486 36,000  Level FlightAware ADS-B
Sun 02:36:49 PM 34.6750 -113.3060 255° West 424 488 36,000  Level FlightAware ADS-B
Sun 02:37:25 PM 34.6570 -113.3910 256° West 425 489 36,000  Level FlightAware ADS-B
Sun 02:38:11 PM 34.6340 -113.4960 255° West 426 490 36,000  Level FlightAware ADS-B
Sun 02:38:55 PM 34.6110 -113.5970 255° West 424 488 36,000  Level FlightAware ADS-B
Sun 02:39:32 PM 34.5930 -113.6810 255° West 422 486 36,000  Level FlightAware ADS-B
Sun 02:40:15 PM 34.5710 -113.7790 255° West 422 486 36,000  Level FlightAware ADS-B
Sun 02:41:01 PM 34.5480 -113.8860 255° West 422 486 36,000  Level FlightAware ADS-B
Sun 02:41:41 PM 34.5280 -113.9760 255° West 423 487 36,000  Level FlightAware ADS-B
Sun 02:42:21 PM 34.5070 -114.0690 255° West 423 487 36,000  Level FlightAware ADS-B
Sun 02:43:05 PM 34.4850 -114.1670 255° West 423 487 36,000  Level FlightAware ADS-B
Sun 02:43:47 PM 34.4630 -114.2630 254° West 424 488 36,000  Level FlightAware ADS-B
Sun 02:44:25 PM 34.4430 -114.3510 255° West 425 489 36,000  Level FlightAware ADS-B
Sun 02:45:13 PM 34.4180 -114.4610 255° West 425 489 36,000  Level FlightAware ADS-B
Sun 02:46:08 PM 34.3900 -114.5840 255° West 425 489 36,000  Level FlightAware ADS-B
Sun 02:46:42 PM 34.3720 -114.6640 255° West 425 489 36,000  Level FlightAware ADS-B
Sun 02:47:43 PM 34.3400 -114.8030 254° West 424 488 36,000  Level FlightAware ADS-B
Sun 02:48:23 PM 34.3190 -114.8920 254° West 424 488 36,000  Level FlightAware ADS-B
Sun 02:49:24 PM 34.2880 -115.0250 254° West 425 489 36,000  Level FlightAware ADS-B
Sun 02:50:00 PM 34.2710 -115.0950 254° West 425 489 36,000  Level FlightAware ADS-B
Sun 02:50:47 PM 34.2420 -115.2220 255° West 427 491 36,000  Level FlightAware ADS-B
Sun 02:51:23 PM 34.2230 -115.3060 255° West 427 491 36,000  Level FlightAware ADS-B
Sun 02:52:04 PM 34.2010 -115.3990 254° West 429 494 36,000  Level FlightAware ADS-B
Sun 02:52:50 PM 34.1750 -115.5070 254° West 430 495 36,000  Level FlightAware ADS-B
Sun 02:53:28 PM 34.1530 -115.5970 254° West 431 496 36,000  Level FlightAware ADS-B
Sun 02:54:16 PM 34.1280 -115.7040 254° West 432 497 36,000 -68 Level FlightAware ADS-B
Sun 02:54:56 PM 34.1080 -115.8020 256° West 437 503 35,900 -698 Descending FlightAware ADS-B
Sun 02:55:42 PM 34.0920 -115.9080 260° West 421 484 35,000 -1,326 Descending FlightAware ADS-B
Sun 02:56:22 PM 34.0790 -115.9960 260° West 408 470 34,000 -1,714 Descending FlightAware ADS-B
Sun 02:57:06 PM 34.0640 -116.0960 260° West 402 463 32,600 -2,000 Descending FlightAware ADS-B
Sun 02:57:46 PM 34.0510 -116.1850 260° West 397 457 31,200 -1,929 Descending FlightAware ADS-B
Sun 02:58:30 PM 34.0360 -116.2790 259° West 391 450 29,900 -1,786 Descending FlightAware ADS-B
Sun 02:59:10 PM 34.0240 -116.3640 260° West 384 442 28,700 -1,714 Descending FlightAware ADS-B
Sun 02:59:54 PM 34.0100 -116.4560 260° West 373 429 27,500 -1,643 Descending FlightAware ADS-B
Sun 03:00:34 PM 34.0010 -116.5360 262° West 366 421 26,400 -2,071 Descending FlightAware ADS-B
Sun 03:01:18 PM 33.9940 -116.6240 265° West 375 432 24,600 -2,233 Descending FlightAware ADS-B
Sun 03:02:00 PM 33.9870 -116.7140 265° West 379 436 23,200 -1,953 Descending FlightAware ADS-B
Sun 03:02:44 PM 33.9800 -116.8060 265° West 376 433 21,800 -1,953 Descending FlightAware ADS-B
Sun 03:03:26 PM 33.9720 -116.8930 264° West 372 428 20,400 -1,976 Descending FlightAware ADS-B
Sun 03:04:06 PM 33.9660 -116.9760 265° West 364 419 19,100 -1,875 Descending FlightAware ADS-B
Sun 03:04:46 PM 33.9590 -117.0550 264° West 357 411 17,900 -1,857 Descending FlightAware ADS-B
Sun 03:05:30 PM 33.9540 -117.1420 266° West 358 412 16,500 -2,163 Descending FlightAware ADS-B
Sun 03:06:12 PM 33.9630 -117.2250 277° West 367 422 14,800 -1,744 Descending FlightAware ADS-B
Sun 03:06:56 PM 33.9740 -117.3130 279° West 347 399 14,000 -857 Descending FlightAware ADS-B
Sun 03:07:36 PM 33.9830 -117.3860 278° West 317 365 13,600 -1,000 Descending FlightAware ADS-B
Sun 03:08:20 PM 33.9930 -117.4620 279° West 310 357 12,600 -1,429 Descending FlightAware ADS-B
Sun 03:09:00 PM 34.0010 -117.5300 278° West 306 352 11,600 -1,463 Descending FlightAware ADS-B
Sun 03:09:42 PM 34.0100 -117.6010 279° West 300 345 10,600 -1,171 Descending FlightAware ADS-B
Sun 03:10:22 PM 34.0180 -117.6640 279° West 295 339 10,000 -581 Descending FlightAware ADS-B
Sun 03:10:44 PM 34.0210 -117.7010 276° West 295 339 10,000 -81 Level FlightAware ADS-B
Sun 03:11:36 PM 34.0140 -117.7860 264° West 296 341 9,900 -553 Descending FlightAware ADS-B
Sun 03:12:00 PM 34.0100 -117.8230 263° West 298 343 9,300 -1,154 Descending FlightAware ADS-B
Sun 03:12:28 PM 34.0050 -117.8710 263° West 286 329 8,900 -545 Descending FlightAware ADS-B
Sun 03:13:06 PM 34.0000 -117.9260 264° West 261 300 8,700 -667 Descending FlightAware ADS-B
Sun 03:13:40 PM 33.9950 -117.9760 263° West 244 281 8,100 -1,143 Descending FlightAware ADS-B
Sun 03:14:09 PM 33.9910 -118.0140 263° West 240 276 7,500 -1,350 Descending FlightAware ADS-B
Sun 03:14:20 PM 33.9900 -118.0290 265° West 240 276 7,200 -1,317 Descending FlightAware ADS-B
Sun 03:14:50 PM 33.9860 -118.0680 263° West 221 254 6,600 -1,043 Descending FlightAware ADS-B
Sun 03:15:06 PM 33.9840 -118.0870 263° West 207 238 6,400 -900 Descending FlightAware ADS-B
Sun 03:15:30 PM 33.9810 -118.1130 262° West 191 220 6,000 -1,038 Descending FlightAware ADS-B
Sun 03:15:58 PM 33.9780 -118.1400 262° West 180 207 5,500 -1,286 Descending FlightAware ADS-B
Sun 03:16:26 PM 33.9760 -118.1680 265° West 175 201 4,800 -1,552 Descending FlightAware ADS-B
Sun 03:16:56 PM 33.9730 -118.1970 263° West 171 197 4,000 -1,552 Descending FlightAware ADS-B
Sun 03:17:24 PM 33.9700 -118.2230 262° West 164 189 3,300 -1,421 Descending FlightAware ADS-B
Sun 03:17:34 PM 33.9690 -118.2310 261° West 164 189 3,100 -1,350 Descending FlightAware ADS-B
Sun 03:18:04 PM 33.9670 -118.2590 265° West 155 178 2,400 -1,014 Descending FlightAware ADS-B
Sun 03:18:45 PM 33.9630 -118.2940 262° West 168 193 1,900 -737 Descending FlightAware ADS-B
Sun 03:19:01 PM 33.9620 -118.3070 265° West 164 189 1,700 -878 Descending FlightAware ADS-B
Sun 03:19:26 PM 33.9600 -118.3270 263° West 150 173 1,300 -824 Descending FlightAware ADS-B
Sun 03:19:52 PM 33.9570 -118.3510 261° West 150 173 1,000 -724 Descending FlightAware ADS-B
Sun 03:20:24 PM 33.9500 -118.3833 261° West 149 171 600 -783 Descending Southern California TRACON
Sun 03:21:01 PM 33.9528 -118.4050 279° West 153 176 100 -811 Descending Los Angeles Center
Sun 03:23:00 PM 33.9425 -118.4081 270° West  Level Estimated

Login

Don't have an account? Register now (free) for customized features, flight alerts, and more!